createdAt,value
2022-09-27T00:01:17.005Z,100.00
2022-09-27T00:03:44.092Z,100.00
2022-09-27T00:06:13.951Z,100.00
2022-09-27T00:08:41.259Z,100.00
2022-09-27T00:11:15.136Z,100.00
2022-09-27T00:13:41.612Z,100.00
2022-09-27T00:16:10.851Z,100.00
2022-09-27T00:18:37.735Z,100.00
2022-09-27T00:21:06.637Z,100.00
2022-09-27T00:23:34.357Z,100.00
2022-09-27T00:26:01.650Z,100.00
2022-09-27T00:28:28.628Z,100.00
2022-09-27T00:30:55.484Z,100.00
2022-09-27T00:33:23.767Z,100.00
2022-09-27T00:35:50.494Z,100.00
2022-09-27T00:38:17.254Z,100.00
2022-09-27T00:40:44.497Z,100.00
2022-09-27T00:43:17.320Z,100.00
2022-09-27T00:45:48.361Z,100.00
2022-09-27T00:48:18.636Z,100.00
2022-09-27T00:50:50.945Z,100.00
2022-09-27T00:53:22.777Z,100.00
2022-09-27T00:55:53.092Z,100.00
2022-09-27T00:58:23.714Z,100.00
2022-09-27T01:00:53.936Z,100.00
2022-09-27T01:03:26.440Z,100.00
2022-09-27T01:05:55.433Z,100.00
2022-09-27T01:08:22.121Z,100.00
2022-09-27T01:11:10.546Z,100.00
2022-09-27T01:13:44.018Z,100.00
2022-09-27T01:16:18.864Z,100.00
2022-09-27T01:19:02.001Z,100.00
2022-09-27T01:21:40.915Z,100.00
2022-09-27T01:24:37.261Z,100.00
2022-09-27T01:27:42.740Z,100.00
2022-09-27T01:30:27.165Z,100.00
2022-09-27T01:33:10.564Z,100.00
2022-09-27T01:35:52.795Z,100.00
2022-09-27T01:38:29.071Z,100.00
2022-09-27T01:41:04.288Z,100.00
2022-09-27T01:43:37.933Z,100.00
2022-09-27T01:46:11.327Z,100.00
2022-09-27T01:48:43.842Z,100.00
2022-09-27T01:51:15.867Z,100.00
2022-09-27T01:53:46.725Z,100.00
2022-09-27T01:56:18.668Z,100.00
2022-09-27T01:58:50.365Z,100.00
2022-09-27T02:01:21.368Z,100.00
2022-09-27T02:03:50.860Z,100.00
2022-09-27T02:06:21.091Z,100.00
2022-09-27T02:08:53.263Z,100.00
2022-09-27T02:11:20.047Z,100.00
2022-09-27T02:13:53.666Z,100.00
2022-09-27T02:16:28.879Z,100.00
2022-09-27T02:19:08.047Z,100.00
2022-09-27T02:21:42.529Z,100.00
2022-09-27T02:24:14.427Z,100.00
2022-09-27T02:26:45.423Z,100.00
2022-09-27T02:29:18.415Z,100.00
2022-09-27T02:31:46.657Z,100.00
2022-09-27T02:34:18.765Z,100.00
2022-09-27T02:36:45.522Z,100.00
2022-09-27T02:39:12.270Z,100.00
2022-09-27T02:41:39.043Z,100.00
2022-09-27T02:44:10.075Z,100.00
2022-09-27T02:46:53.937Z,100.00
2022-09-27T02:49:35.797Z,100.00
2022-09-27T02:52:15.838Z,100.00
2022-09-27T02:54:52.421Z,100.00
2022-09-27T02:57:30.467Z,100.00
2022-09-27T03:00:07.331Z,100.00
2022-09-27T03:02:41.359Z,100.00
2022-09-27T03:05:12.185Z,100.00
2022-09-27T03:07:39.844Z,100.00
2022-09-27T03:10:07.885Z,100.00
2022-09-27T03:12:35.059Z,100.00
2022-09-27T03:15:02.149Z,100.00
2022-09-27T03:17:29.027Z,100.00
2022-09-27T03:19:57.101Z,100.00
2022-09-27T03:22:23.863Z,100.00
2022-09-27T03:24:50.624Z,100.00
2022-09-27T03:27:17.386Z,100.00
2022-09-27T03:29:44.070Z,100.00
2022-09-27T03:32:10.919Z,100.00
2022-09-27T03:34:37.870Z,100.00
2022-09-27T03:37:05.965Z,100.00
2022-09-27T03:39:33.224Z,100.00
2022-09-27T03:42:00.165Z,100.00
2022-09-27T03:44:26.974Z,100.00
2022-09-27T03:46:53.781Z,100.00
2022-09-27T03:49:20.519Z,100.00
2022-09-27T03:51:47.271Z,100.00
2022-09-27T03:54:15.725Z,100.00
2022-09-27T03:56:42.433Z,100.00
2022-09-27T03:59:09.194Z,100.00
2022-09-27T04:01:37.659Z,100.00
2022-09-27T04:04:08.833Z,100.00
2022-09-27T04:06:37.774Z,100.00
2022-09-27T04:09:04.724Z,100.00
2022-09-27T04:11:32.841Z,100.00
2022-09-27T04:13:59.725Z,100.00
2022-09-27T04:16:27.583Z,100.00
2022-09-27T04:18:54.418Z,100.00
2022-09-27T04:21:22.586Z,100.00
2022-09-27T04:23:49.389Z,100.00
2022-09-27T04:26:16.344Z,100.00
2022-09-27T04:28:44.879Z,100.00
2022-09-27T04:31:11.667Z,100.00
2022-09-27T04:33:38.806Z,100.00
2022-09-27T04:36:24.864Z,100.00
2022-09-27T04:38:51.554Z,100.00
2022-09-27T04:41:18.350Z,100.00
2022-09-27T04:43:46.456Z,100.00
2022-09-27T04:46:13.946Z,100.00
2022-09-27T04:48:41.175Z,100.00
2022-09-27T04:51:23.210Z,100.00
2022-09-27T04:53:49.920Z,100.00
2022-09-27T04:56:16.689Z,100.00
2022-09-27T04:58:43.438Z,100.00
2022-09-27T05:01:11.501Z,100.00
2022-09-27T05:03:39.013Z,100.00
2022-09-27T05:06:06.220Z,100.00
2022-09-27T05:08:32.977Z,100.00
2022-09-27T05:10:59.760Z,100.00
2022-09-27T05:13:26.421Z,100.00
2022-09-27T05:15:53.094Z,100.00
2022-09-27T05:18:21.358Z,100.00
2022-09-27T05:20:48.101Z,100.00
2022-09-27T05:23:15.471Z,100.00
2022-09-27T05:25:43.116Z,100.00
2022-09-27T05:28:09.985Z,100.00
2022-09-27T05:30:36.903Z,100.00
2022-09-27T05:33:03.965Z,100.00
2022-09-27T05:35:33.939Z,100.00
2022-09-27T05:38:00.961Z,100.00
2022-09-27T05:40:40.835Z,100.00
2022-09-27T05:43:08.558Z,100.00
2022-09-27T05:45:35.305Z,100.00
2022-09-27T05:48:02.710Z,100.00
2022-09-27T05:50:29.596Z,100.00
2022-09-27T05:52:57.935Z,100.00
2022-09-27T05:55:24.940Z,100.00
2022-09-27T05:57:57.395Z,100.00
2022-09-27T06:00:25.770Z,100.00
2022-09-27T06:02:56.628Z,100.00
2022-09-27T06:05:27.634Z,100.00
2022-09-27T06:08:00.784Z,100.00
2022-09-27T06:10:28.455Z,100.00
2022-09-27T06:12:59.977Z,100.00
2022-09-27T06:15:26.803Z,100.00
2022-09-27T06:17:54.250Z,100.00
2022-09-27T06:20:21.478Z,100.00
2022-09-27T06:22:48.269Z,100.00
2022-09-27T06:25:16.731Z,100.00
2022-09-27T06:27:45.127Z,100.00
2022-09-27T06:30:14.835Z,100.00
2022-09-27T06:32:44.990Z,100.00
2022-09-27T06:35:11.788Z,100.00
2022-09-27T06:37:38.492Z,100.00
2022-09-27T06:40:09.065Z,100.00
2022-09-27T06:42:38.356Z,100.00
2022-09-27T06:45:06.439Z,100.00
2022-09-27T06:47:35.856Z,100.00
2022-09-27T06:50:05.863Z,100.00
2022-09-27T06:52:32.718Z,100.00
2022-09-27T06:54:59.505Z,100.00
2022-09-27T06:57:45.486Z,100.00
2022-09-27T07:00:29.900Z,100.00
2022-09-27T07:03:01.138Z,100.00
2022-09-27T07:05:29.744Z,100.00
2022-09-27T07:07:57.846Z,100.00
2022-09-27T07:10:26.479Z,100.00
2022-09-27T07:12:53.455Z,100.00
2022-09-27T07:15:22.786Z,100.00
2022-09-27T07:17:56.924Z,100.00
2022-09-27T07:20:24.591Z,100.00
2022-09-27T07:22:51.421Z,100.00
2022-09-27T07:25:27.161Z,100.00
2022-09-27T07:27:54.052Z,100.00
2022-09-27T07:30:23.425Z,100.00
2022-09-27T07:32:50.559Z,100.00
2022-09-27T07:35:17.401Z,100.00
2022-09-27T07:37:44.992Z,100.00
2022-09-27T07:40:11.903Z,100.00
2022-09-27T07:42:39.127Z,100.00
2022-09-27T07:45:09.267Z,100.00
2022-09-27T07:47:38.209Z,100.00
2022-09-27T07:50:05.529Z,100.00
2022-09-27T07:52:40.320Z,100.00
2022-09-27T07:55:08.010Z,100.00
2022-09-27T07:57:35.060Z,100.00
2022-09-27T08:00:02.795Z,100.00
2022-09-27T08:02:33.230Z,100.00
2022-09-27T08:05:01.981Z,100.00
2022-09-27T08:07:29.996Z,100.00
2022-09-27T08:09:56.774Z,100.00
2022-09-27T08:12:23.893Z,100.00
2022-09-27T08:14:51.326Z,100.00
2022-09-27T08:17:19.406Z,100.00
2022-09-27T08:19:50.067Z,100.00
2022-09-27T08:22:21.526Z,100.00
2022-09-27T08:24:49.211Z,100.00
2022-09-27T08:27:17.936Z,100.00
2022-09-27T08:29:44.932Z,100.00
2022-09-27T08:32:12.576Z,100.00
2022-09-27T08:34:39.976Z,100.00
2022-09-27T08:37:07.361Z,100.00
2022-09-27T08:39:36.097Z,100.00
2022-09-27T08:42:13.124Z,100.00
2022-09-27T08:44:48.604Z,100.00
2022-09-27T08:47:18.309Z,100.00
2022-09-27T08:49:50.096Z,100.00
2022-09-27T08:52:21.819Z,100.00
2022-09-27T08:54:52.007Z,100.00
2022-09-27T08:57:19.703Z,100.00
2022-09-27T08:59:54.908Z,100.00
2022-09-27T09:02:27.351Z,100.00
2022-09-27T09:04:57.788Z,100.00
2022-09-27T09:07:42.584Z,100.00
2022-09-27T09:10:48.208Z,100.00
2022-09-27T09:13:26.622Z,100.00
2022-09-27T09:16:00.056Z,100.00
2022-09-27T09:18:41.300Z,100.00
2022-09-27T09:21:18.131Z,100.00
2022-09-27T09:24:04.672Z,100.00
2022-09-27T09:26:42.816Z,99.12
2022-09-27T09:29:30.471Z,100.00
2022-09-27T09:32:08.155Z,100.00
2022-09-27T09:34:40.909Z,100.00
2022-09-27T09:37:13.328Z,100.00
2022-09-27T09:39:45.580Z,100.00
2022-09-27T09:42:19.953Z,100.00
2022-09-27T09:44:54.247Z,100.00
2022-09-27T09:47:31.664Z,100.00
2022-09-27T09:50:01.737Z,100.00
2022-09-27T09:52:42.373Z,100.00
2022-09-27T09:55:19.583Z,98.61
2022-09-27T09:57:57.974Z,99.08
2022-09-27T10:00:24.694Z,95.65
2022-09-27T10:02:54.350Z,96.56
2022-09-27T14:11:58.248Z,82.09
2022-09-27T14:14:29.280Z,82.43
2022-09-27T14:17:00.089Z,79.96
2022-09-27T14:19:29.591Z,78.94
2022-09-27T14:21:58.120Z,78.96
2022-09-27T14:24:28.969Z,77.94
2022-09-27T14:27:19.066Z,78.29
2022-09-27T14:29:49.045Z,77.10
2022-09-27T14:32:18.414Z,77.77
2022-09-27T14:34:46.095Z,76.99
2022-09-27T14:37:26.714Z,100.00
2022-09-27T14:39:56.274Z,100.00
2022-09-27T14:42:27.249Z,100.00
2022-09-27T14:44:58.632Z,100.00
2022-09-27T14:47:28.845Z,100.00
2022-09-27T14:49:57.834Z,100.00
2022-09-27T14:52:30.177Z,100.00
2022-09-27T14:55:02.655Z,100.00
2022-09-27T14:57:34.135Z,100.00
2022-09-27T15:00:09.780Z,100.00
2022-09-27T15:02:38.165Z,100.00
2022-09-27T15:05:12.487Z,100.00
2022-09-27T15:07:39.725Z,86.98
2022-09-27T15:10:12.442Z,89.13
2022-09-27T15:12:41.027Z,91.36
2022-09-27T15:15:14.412Z,100.00
2022-09-27T15:17:43.736Z,100.00
2022-09-27T15:20:34.675Z,100.00
2022-09-27T15:23:04.614Z,100.00
2022-09-27T15:25:37.505Z,100.00
2022-09-27T15:28:14.783Z,100.00
2022-09-27T15:30:45.391Z,100.00
2022-09-27T15:33:21.666Z,100.00
2022-09-27T15:35:50.874Z,100.00
2022-09-27T15:38:27.438Z,100.00
2022-09-27T15:41:00.480Z,100.00
2022-09-27T15:43:30.902Z,100.00
2022-09-27T15:46:02.007Z,100.00
2022-09-27T15:48:31.713Z,100.00
2022-09-27T15:50:58.962Z,100.00
2022-09-27T15:53:42.600Z,89.33
2022-09-27T15:56:13.546Z,100.00
2022-09-27T15:58:43.778Z,100.00
2022-09-27T16:01:19.758Z,100.00
2022-09-27T16:03:46.839Z,100.00
2022-09-27T16:06:14.943Z,100.00
2022-09-27T16:08:43.861Z,100.00
2022-09-27T16:11:14.309Z,100.00
2022-09-27T16:13:42.593Z,100.00
2022-09-27T16:16:16.269Z,100.00
2022-09-27T16:18:44.316Z,100.00
2022-09-27T16:21:11.329Z,100.00
2022-09-27T16:23:38.468Z,100.00
2022-09-27T16:26:06.115Z,89.33
2022-09-27T16:28:33.238Z,100.00
2022-09-27T16:31:07.111Z,100.00
2022-09-27T16:33:35.649Z,100.00
2022-09-27T16:36:08.396Z,100.00
2022-09-27T16:38:35.414Z,100.00
2022-09-27T16:41:03.403Z,100.00
2022-09-27T16:43:31.918Z,100.00
2022-09-27T16:46:09.129Z,100.00
2022-09-27T16:48:36.432Z,100.00
2022-09-27T16:51:23.859Z,100.00
2022-09-27T16:53:50.768Z,100.00
2022-09-27T16:56:18.072Z,100.00
2022-09-27T16:58:45.065Z,100.00
2022-09-27T17:01:16.425Z,100.00
2022-09-27T17:03:44.462Z,100.00
2022-09-27T17:06:12.626Z,100.00
2022-09-27T17:08:39.591Z,100.00
2022-09-27T17:11:06.555Z,100.00
2022-09-27T17:13:34.041Z,100.00
2022-09-27T17:16:05.157Z,100.00
2022-09-27T17:18:33.589Z,100.00
2022-09-27T17:21:01.797Z,100.00
2022-09-27T17:23:28.808Z,100.00
2022-09-27T17:25:56.484Z,100.00
2022-09-27T17:28:23.472Z,100.00
2022-09-27T17:30:53.157Z,100.00
2022-09-27T17:33:21.820Z,100.00
2022-09-27T17:36:00.292Z,100.00
2022-09-27T17:38:26.957Z,100.00
2022-09-27T17:41:00.310Z,100.00
2022-09-27T17:43:27.112Z,100.00
2022-09-27T17:45:53.957Z,100.00
2022-09-27T17:48:39.777Z,100.00
2022-09-27T17:51:12.286Z,100.00
2022-09-27T17:53:39.035Z,100.00
2022-09-27T17:56:06.450Z,100.00
2022-09-27T17:58:33.425Z,100.00
2022-09-27T18:01:03.228Z,100.00
2022-09-27T18:03:30.293Z,100.00
2022-09-27T18:05:58.107Z,100.00
2022-09-27T18:08:30.417Z,100.00
2022-09-27T18:10:57.634Z,100.00
2022-09-27T18:13:24.406Z,100.00
2022-09-27T18:16:01.856Z,100.00
2022-09-27T18:18:28.813Z,100.00
2022-09-27T18:21:01.306Z,100.00
2022-09-27T18:26:15.216Z,100.00
2022-09-27T18:28:42.597Z,100.00
2022-09-27T18:31:12.852Z,100.00
2022-09-27T18:33:40.300Z,100.00
2022-09-27T18:36:09.935Z,100.00
2022-09-27T18:38:38.022Z,100.00
2022-09-27T18:41:07.176Z,100.00
2022-09-27T18:43:38.721Z,100.00
2022-09-27T18:46:33.858Z,100.00
2022-09-27T18:48:54.871Z,100.00
2022-09-27T18:51:26.053Z,100.00
2022-09-27T18:53:56.677Z,100.00
2022-09-27T18:56:24.837Z,100.00
2022-09-27T18:58:52.244Z,100.00
2022-09-27T19:01:20.639Z,100.00
2022-09-27T19:03:48.314Z,100.00
2022-09-27T19:06:21.026Z,100.00
2022-09-27T19:08:48.221Z,100.00
2022-09-27T19:11:19.644Z,100.00
2022-09-27T19:13:51.740Z,100.00
2022-09-27T19:16:21.469Z,100.00
2022-09-27T19:18:49.036Z,100.00
2022-09-27T19:21:18.743Z,100.00
2022-09-27T19:23:45.970Z,100.00
2022-09-27T19:26:19.053Z,100.00
2022-09-27T19:28:49.188Z,100.00
2022-09-27T19:31:18.084Z,100.00
2022-09-27T19:33:45.377Z,100.00
2022-09-27T19:36:14.791Z,100.00
2022-09-27T19:38:41.861Z,100.00
2022-09-27T19:41:11.239Z,100.00
2022-09-27T19:43:40.098Z,100.00
2022-09-27T19:46:09.124Z,100.00
2022-09-27T19:48:36.980Z,100.00
2022-09-27T19:51:04.595Z,100.00
2022-09-27T19:53:33.122Z,100.00
2022-09-27T19:56:00.949Z,100.00
2022-09-27T19:58:29.489Z,100.00
2022-09-27T20:01:06.780Z,100.00
2022-09-27T20:03:35.008Z,100.00
2022-09-27T20:06:03.532Z,100.00
2022-09-27T20:08:31.661Z,100.00
2022-09-27T20:11:05.873Z,100.00
2022-09-27T20:13:34.566Z,100.00
2022-09-27T20:16:05.076Z,100.00
2022-09-27T20:18:32.847Z,100.00
2022-09-27T20:21:01.987Z,100.00
2022-09-27T20:23:30.203Z,100.00
2022-09-27T20:26:01.346Z,100.00
2022-09-27T20:28:30.539Z,100.00
2022-09-27T20:31:05.973Z,100.00
2022-09-27T20:33:43.323Z,100.00
2022-09-27T20:36:12.783Z,100.00
2022-09-27T20:38:40.456Z,100.00
2022-09-27T20:41:07.989Z,100.00
2022-09-27T20:43:35.701Z,100.00
2022-09-27T20:46:05.625Z,100.00
2022-09-27T20:48:32.743Z,100.00
2022-09-27T20:51:04.388Z,100.00
2022-09-27T20:53:32.766Z,100.00
2022-09-27T20:56:04.496Z,100.00
2022-09-27T20:58:32.910Z,100.00
2022-09-27T21:01:07.220Z,100.00
2022-09-27T21:03:34.769Z,100.00
2022-09-27T21:06:02.244Z,100.00
2022-09-27T21:08:30.855Z,100.00
2022-09-27T21:11:06.217Z,100.00
2022-09-27T21:13:34.593Z,100.00
2022-09-27T21:16:02.788Z,100.00
2022-09-27T21:18:31.104Z,100.00
2022-09-27T21:20:58.857Z,100.00
2022-09-27T21:23:26.057Z,100.00
2022-09-27T21:26:01.559Z,100.00
2022-09-27T21:28:32.764Z,100.00
2022-09-27T21:31:02.555Z,100.00
2022-09-27T21:33:30.988Z,100.00
2022-09-27T21:35:58.967Z,100.00
2022-09-27T21:38:26.214Z,100.00
2022-09-27T21:40:58.896Z,100.00
2022-09-27T21:43:27.643Z,100.00
2022-09-27T21:45:54.551Z,100.00
2022-09-27T21:48:21.205Z,100.00
2022-09-27T21:50:50.274Z,100.00
2022-09-27T21:53:17.684Z,100.00
2022-09-27T21:55:54.547Z,100.00
2022-09-27T21:58:21.342Z,100.00
2022-09-27T22:00:48.155Z,100.00
2022-09-27T22:03:14.958Z,100.00
2022-09-27T22:05:44.429Z,100.00
2022-09-27T22:08:12.493Z,100.00
2022-09-27T22:10:39.403Z,100.00
2022-09-27T22:13:06.270Z,100.00
2022-09-27T22:15:34.781Z,100.00
2022-09-27T22:18:01.627Z,100.00
2022-09-27T22:20:28.520Z,100.00
2022-09-27T22:22:56.303Z,100.00
2022-09-27T22:25:24.402Z,100.00
2022-09-27T22:27:51.083Z,100.00
2022-09-27T22:30:18.050Z,100.00
2022-09-27T22:32:45.402Z,100.00
2022-09-27T22:35:12.136Z,100.00
2022-09-27T22:37:39.278Z,100.00
2022-09-27T22:40:07.116Z,100.00
2022-09-27T22:42:35.220Z,100.00
2022-09-27T22:45:02.695Z,100.00
2022-09-27T22:47:29.358Z,100.00
2022-09-27T22:49:58.578Z,100.00
2022-09-27T22:52:25.997Z,100.00
2022-09-27T22:54:52.592Z,100.00
2022-09-27T22:57:19.525Z,100.00
2022-09-27T22:59:47.516Z,100.00
2022-09-27T23:02:14.178Z,100.00
2022-09-27T23:04:40.751Z,100.00
2022-09-27T23:07:07.433Z,100.00
2022-09-27T23:09:34.448Z,100.00
2022-09-27T23:12:01.330Z,100.00
2022-09-27T23:14:29.523Z,100.00
2022-09-27T23:16:58.640Z,100.00
2022-09-27T23:19:26.548Z,100.00
2022-09-27T23:21:53.324Z,100.00
2022-09-27T23:24:20.042Z,100.00
2022-09-27T23:27:06.782Z,100.00
2022-09-27T23:29:33.380Z,100.00
2022-09-27T23:32:02.024Z,100.00
2022-09-27T23:34:29.054Z,100.00
2022-09-27T23:36:55.879Z,100.00
2022-09-27T23:39:22.558Z,100.00
2022-09-27T23:41:49.329Z,100.00
2022-09-27T23:44:16.000Z,100.00
2022-09-27T23:46:42.850Z,100.00
2022-09-27T23:49:10.879Z,100.00
2022-09-27T23:51:37.510Z,100.00
2022-09-27T23:54:04.424Z,100.00
2022-09-27T23:56:31.068Z,100.00
2022-09-27T23:58:57.964Z,100.00
